sensor_id;sensor_type;location;lat;lon;timestamp;P1;durP1;ratioP1;P2;durP2;ratioP2
52530;SDS011;38441;52.894;6.040;2022-12-11T00:02:19;42.83;;;17.15;;
52530;SDS011;38441;52.894;6.040;2022-12-11T00:04:45;44.30;;;16.27;;
52530;SDS011;38441;52.894;6.040;2022-12-11T00:07:11;41.28;;;15.90;;
52530;SDS011;38441;52.894;6.040;2022-12-11T00:09:37;43.53;;;16.00;;
52530;SDS011;38441;52.894;6.040;2022-12-11T00:12:03;43.80;;;17.13;;
52530;SDS011;38441;52.894;6.040;2022-12-11T00:14:31;47.97;;;16.80;;
52530;SDS011;38441;52.894;6.040;2022-12-11T00:16:57;53.20;;;16.90;;
52530;SDS011;38441;52.894;6.040;2022-12-11T00:19:23;51.13;;;17.38;;
52530;SDS011;38441;52.894;6.040;2022-12-11T00:21:49;47.15;;;17.92;;
52530;SDS011;38441;52.894;6.040;2022-12-11T00:24:15;47.15;;;17.02;;
52530;SDS011;38441;52.894;6.040;2022-12-11T00:26:41;51.53;;;16.70;;
52530;SDS011;38441;52.894;6.040;2022-12-11T00:29:08;43.70;;;17.58;;
52530;SDS011;38441;52.894;6.040;2022-12-11T00:31:38;45.42;;;17.00;;
52530;SDS011;38441;52.894;6.040;2022-12-11T00:34:04;41.65;;;16.38;;
52530;SDS011;38441;52.894;6.040;2022-12-11T00:36:30;48.70;;;15.40;;
52530;SDS011;38441;52.894;6.040;2022-12-11T00:38:56;43.45;;;15.85;;
52530;SDS011;38441;52.894;6.040;2022-12-11T00:41:22;49.90;;;15.90;;
52530;SDS011;38441;52.894;6.040;2022-12-11T00:43:48;48.97;;;16.88;;
52530;SDS011;38441;52.894;6.040;2022-12-11T00:46:15;44.70;;;15.77;;
52530;SDS011;38441;52.894;6.040;2022-12-11T00:48:41;41.25;;;14.18;;
52530;SDS011;38441;52.894;6.040;2022-12-11T00:51:07;44.83;;;16.85;;
52530;SDS011;38441;52.894;6.040;2022-12-11T00:53:33;44.45;;;16.02;;
52530;SDS011;38441;52.894;6.040;2022-12-11T00:56:00;44.85;;;14.88;;
52530;SDS011;38441;52.894;6.040;2022-12-11T00:58:26;43.08;;;16.02;;
52530;SDS011;38441;52.894;6.040;2022-12-11T01:00:52;43.30;;;14.50;;
52530;SDS011;38441;52.894;6.040;2022-12-11T01:03:18;46.22;;;16.00;;
52530;SDS011;38441;52.894;6.040;2022-12-11T01:05:53;51.80;;;16.45;;
52530;SDS011;38441;52.894;6.040;2022-12-11T01:08:19;46.15;;;14.48;;
52530;SDS011;38441;52.894;6.040;2022-12-11T01:10:45;47.30;;;15.48;;
52530;SDS011;38441;52.894;6.040;2022-12-11T01:13:11;45.47;;;15.68;;
52530;SDS011;38441;52.894;6.040;2022-12-11T01:15:38;44.38;;;15.00;;
52530;SDS011;38441;52.894;6.040;2022-12-11T01:18:05;46.55;;;15.98;;
52530;SDS011;38441;52.894;6.040;2022-12-11T01:20:31;41.28;;;14.50;;
52530;SDS011;38441;52.894;6.040;2022-12-11T01:22:58;44.60;;;14.95;;
52530;SDS011;38441;52.894;6.040;2022-12-11T01:25:25;47.75;;;14.35;;
52530;SDS011;38441;52.894;6.040;2022-12-11T01:27:53;43.40;;;14.43;;
52530;SDS011;38441;52.894;6.040;2022-12-11T01:30:20;47.53;;;14.23;;
52530;SDS011;38441;52.894;6.040;2022-12-11T01:32:47;46.22;;;15.95;;
52530;SDS011;38441;52.894;6.040;2022-12-11T01:35:13;40.85;;;14.85;;
52530;SDS011;38441;52.894;6.040;2022-12-11T01:37:39;51.95;;;15.68;;
52530;SDS011;38441;52.894;6.040;2022-12-11T01:40:06;47.47;;;15.35;;
52530;SDS011;38441;52.894;6.040;2022-12-11T01:42:32;41.83;;;14.88;;
52530;SDS011;38441;52.894;6.040;2022-12-11T01:45:41;41.50;;;15.02;;
52530;SDS011;38441;52.894;6.040;2022-12-11T01:47:59;48.58;;;14.93;;
52530;SDS011;38441;52.894;6.040;2022-12-11T01:50:26;44.30;;;14.48;;
52530;SDS011;38441;52.894;6.040;2022-12-11T01:52:53;42.20;;;14.80;;
52530;SDS011;38441;52.894;6.040;2022-12-11T01:55:19;47.95;;;15.63;;
52530;SDS011;38441;52.894;6.040;2022-12-11T01:57:46;53.53;;;16.60;;
52530;SDS011;38441;52.894;6.040;2022-12-11T02:00:15;46.17;;;14.77;;
52530;SDS011;38441;52.894;6.040;2022-12-11T02:02:41;41.92;;;15.75;;
52530;SDS011;38441;52.894;6.040;2022-12-11T02:05:07;46.67;;;16.88;;
52530;SDS011;38441;52.894;6.040;2022-12-11T02:07:54;43.38;;;15.68;;
52530;SDS011;38441;52.894;6.040;2022-12-11T02:10:35;43.20;;;14.88;;
52530;SDS011;38441;52.894;6.040;2022-12-11T02:13:09;47.10;;;16.90;;
52530;SDS011;38441;52.894;6.040;2022-12-11T02:15:49;51.30;;;16.58;;
52530;SDS011;38441;52.894;6.040;2022-12-11T02:21:26;49.88;;;16.90;;
52530;SDS011;38441;52.894;6.040;2022-12-11T02:23:59;47.95;;;15.90;;
52530;SDS011;38441;52.894;6.040;2022-12-11T02:29:29;50.83;;;16.33;;
52530;SDS011;38441;52.894;6.040;2022-12-11T02:32:15;51.33;;;17.35;;
52530;SDS011;38441;52.894;6.040;2022-12-11T02:37:19;54.80;;;17.15;;
52530;SDS011;38441;52.894;6.040;2022-12-11T02:39:48;51.63;;;17.73;;
52530;SDS011;38441;52.894;6.040;2022-12-11T02:42:15;52.15;;;17.02;;
52530;SDS011;38441;52.894;6.040;2022-12-11T02:44:41;53.05;;;17.35;;
52530;SDS011;38441;52.894;6.040;2022-12-11T02:47:10;58.35;;;18.50;;
52530;SDS011;38441;52.894;6.040;2022-12-11T02:49:39;51.83;;;17.38;;
52530;SDS011;38441;52.894;6.040;2022-12-11T02:52:08;51.63;;;17.08;;
52530;SDS011;38441;52.894;6.040;2022-12-11T02:54:35;53.55;;;17.38;;
52530;SDS011;38441;52.894;6.040;2022-12-11T02:57:05;51.67;;;17.80;;
52530;SDS011;38441;52.894;6.040;2022-12-11T02:59:41;59.60;;;17.90;;
52530;SDS011;38441;52.894;6.040;2022-12-11T03:02:10;54.03;;;17.40;;
52530;SDS011;38441;52.894;6.040;2022-12-11T03:04:36;53.25;;;17.08;;
52530;SDS011;38441;52.894;6.040;2022-12-11T03:07:03;57.72;;;18.10;;
52530;SDS011;38441;52.894;6.040;2022-12-11T03:09:41;60.50;;;18.17;;
52530;SDS011;38441;52.894;6.040;2022-12-11T03:12:09;47.92;;;17.48;;
52530;SDS011;38441;52.894;6.040;2022-12-11T03:14:36;51.40;;;16.80;;
52530;SDS011;38441;52.894;6.040;2022-12-11T03:22:20;49.22;;;17.02;;
52530;SDS011;38441;52.894;6.040;2022-12-11T03:25:16;48.60;;;16.67;;
52530;SDS011;38441;52.894;6.040;2022-12-11T03:27:49;44.08;;;15.77;;
52530;SDS011;38441;52.894;6.040;2022-12-11T03:30:21;54.42;;;17.80;;
52530;SDS011;38441;52.894;6.040;2022-12-11T03:35:25;56.05;;;17.35;;
52530;SDS011;38441;52.894;6.040;2022-12-11T03:37:55;47.13;;;17.67;;
52530;SDS011;38441;52.894;6.040;2022-12-11T03:40:24;57.55;;;16.40;;
52530;SDS011;38441;52.894;6.040;2022-12-11T03:42:51;52.78;;;16.85;;
52530;SDS011;38441;52.894;6.040;2022-12-11T03:45:20;51.45;;;16.70;;
52530;SDS011;38441;52.894;6.040;2022-12-11T03:47:47;48.45;;;16.55;;
52530;SDS011;38441;52.894;6.040;2022-12-11T03:50:15;50.30;;;16.63;;
52530;SDS011;38441;52.894;6.040;2022-12-11T03:52:43;52.65;;;17.45;;
52530;SDS011;38441;52.894;6.040;2022-12-11T03:55:09;50.05;;;17.95;;
52530;SDS011;38441;52.894;6.040;2022-12-11T03:57:37;50.42;;;17.48;;
52530;SDS011;38441;52.894;6.040;2022-12-11T04:00:07;52.70;;;18.08;;
52530;SDS011;38441;52.894;6.040;2022-12-11T04:02:33;49.38;;;17.95;;
52530;SDS011;38441;52.894;6.040;2022-12-11T04:04:59;47.45;;;16.38;;
52530;SDS011;38441;52.894;6.040;2022-12-11T04:07:25;53.90;;;18.48;;
52530;SDS011;38441;52.894;6.040;2022-12-11T04:09:52;53.30;;;17.42;;
52530;SDS011;38441;52.894;6.040;2022-12-11T04:12:18;58.72;;;18.67;;
52530;SDS011;38441;52.894;6.040;2022-12-11T04:14:44;49.85;;;17.27;;
52530;SDS011;38441;52.894;6.040;2022-12-11T04:17:26;48.45;;;17.00;;
52530;SDS011;38441;52.894;6.040;2022-12-11T04:20:11;47.67;;;15.52;;
52530;SDS011;38441;52.894;6.040;2022-12-11T04:22:55;46.90;;;16.05;;
52530;SDS011;38441;52.894;6.040;2022-12-11T04:25:40;43.83;;;16.23;;
52530;SDS011;38441;52.894;6.040;2022-12-11T04:28:06;46.40;;;16.20;;
52530;SDS011;38441;52.894;6.040;2022-12-11T04:30:32;53.25;;;16.90;;
52530;SDS011;38441;52.894;6.040;2022-12-11T04:32:58;52.55;;;16.77;;
52530;SDS011;38441;52.894;6.040;2022-12-11T04:35:24;45.65;;;15.82;;
52530;SDS011;38441;52.894;6.040;2022-12-11T04:37:50;50.75;;;16.45;;
52530;SDS011;38441;52.894;6.040;2022-12-11T04:40:17;47.30;;;16.05;;
52530;SDS011;38441;52.894;6.040;2022-12-11T04:42:43;51.05;;;17.38;;
52530;SDS011;38441;52.894;6.040;2022-12-11T04:45:09;48.42;;;16.27;;
52530;SDS011;38441;52.894;6.040;2022-12-11T04:47:36;47.33;;;17.88;;
52530;SDS011;38441;52.894;6.040;2022-12-11T04:50:03;44.45;;;15.57;;
52530;SDS011;38441;52.894;6.040;2022-12-11T04:52:29;45.60;;;15.60;;
52530;SDS011;38441;52.894;6.040;2022-12-11T04:54:55;53.13;;;16.92;;
52530;SDS011;38441;52.894;6.040;2022-12-11T04:57:21;47.38;;;16.90;;
52530;SDS011;38441;52.894;6.040;2022-12-11T04:59:47;53.20;;;17.27;;
52530;SDS011;38441;52.894;6.040;2022-12-11T05:02:14;43.15;;;15.77;;
52530;SDS011;38441;52.894;6.040;2022-12-11T05:04:40;51.25;;;17.17;;
52530;SDS011;38441;52.894;6.040;2022-12-11T05:07:06;54.05;;;17.33;;
52530;SDS011;38441;52.894;6.040;2022-12-11T05:09:33;47.90;;;15.80;;
52530;SDS011;38441;52.894;6.040;2022-12-11T05:11:59;49.08;;;16.90;;
52530;SDS011;38441;52.894;6.040;2022-12-11T05:14:25;43.88;;;16.00;;
52530;SDS011;38441;52.894;6.040;2022-12-11T05:16:54;51.53;;;17.48;;
52530;SDS011;38441;52.894;6.040;2022-12-11T05:19:20;52.72;;;17.52;;
52530;SDS011;38441;52.894;6.040;2022-12-11T05:21:46;42.88;;;15.63;;
52530;SDS011;38441;52.894;6.040;2022-12-11T05:24:12;51.78;;;16.63;;
52530;SDS011;38441;52.894;6.040;2022-12-11T05:26:38;51.10;;;16.60;;
52530;SDS011;38441;52.894;6.040;2022-12-11T05:29:04;47.42;;;17.20;;
52530;SDS011;38441;52.894;6.040;2022-12-11T05:31:30;42.17;;;15.05;;
52530;SDS011;38441;52.894;6.040;2022-12-11T05:33:56;49.60;;;16.67;;
52530;SDS011;38441;52.894;6.040;2022-12-11T05:36:26;51.42;;;17.30;;
52530;SDS011;38441;52.894;6.040;2022-12-11T05:38:53;41.08;;;15.77;;
52530;SDS011;38441;52.894;6.040;2022-12-11T05:41:21;44.03;;;15.93;;
52530;SDS011;38441;52.894;6.040;2022-12-11T05:43:48;44.55;;;14.80;;
52530;SDS011;38441;52.894;6.040;2022-12-11T05:46:18;45.60;;;16.80;;
52530;SDS011;38441;52.894;6.040;2022-12-11T05:48:49;46.33;;;16.35;;
52530;SDS011;38441;52.894;6.040;2022-12-11T05:51:17;47.95;;;17.20;;
52530;SDS011;38441;52.894;6.040;2022-12-11T05:53:44;47.45;;;16.50;;
52530;SDS011;38441;52.894;6.040;2022-12-11T05:56:23;51.65;;;16.63;;
52530;SDS011;38441;52.894;6.040;2022-12-11T05:58:52;48.60;;;17.48;;
52530;SDS011;38441;52.894;6.040;2022-12-11T06:01:19;45.67;;;15.50;;
52530;SDS011;38441;52.894;6.040;2022-12-11T06:03:47;50.53;;;17.02;;
52530;SDS011;38441;52.894;6.040;2022-12-11T06:06:13;54.45;;;18.13;;
52530;SDS011;38441;52.894;6.040;2022-12-11T06:08:39;50.72;;;18.48;;
52530;SDS011;38441;52.894;6.040;2022-12-11T06:11:05;60.22;;;19.42;;
52530;SDS011;38441;52.894;6.040;2022-12-11T06:13:31;53.80;;;18.85;;
52530;SDS011;38441;52.894;6.040;2022-12-11T06:16:01;50.85;;;16.92;;
52530;SDS011;38441;52.894;6.040;2022-12-11T06:18:28;50.55;;;19.58;;
52530;SDS011;38441;52.894;6.040;2022-12-11T06:20:54;45.78;;;17.90;;
52530;SDS011;38441;52.894;6.040;2022-12-11T06:23:20;53.50;;;18.60;;
52530;SDS011;38441;52.894;6.040;2022-12-11T06:25:46;50.63;;;17.02;;
52530;SDS011;38441;52.894;6.040;2022-12-11T06:28:11;51.53;;;17.60;;
52530;SDS011;38441;52.894;6.040;2022-12-11T06:30:38;52.10;;;18.10;;
52530;SDS011;38441;52.894;6.040;2022-12-11T06:33:04;47.72;;;16.58;;
52530;SDS011;38441;52.894;6.040;2022-12-11T06:35:30;46.95;;;16.48;;
52530;SDS011;38441;52.894;6.040;2022-12-11T06:37:56;51.65;;;17.52;;
52530;SDS011;38441;52.894;6.040;2022-12-11T06:40:21;54.00;;;17.02;;
52530;SDS011;38441;52.894;6.040;2022-12-11T06:42:47;56.55;;;18.92;;
52530;SDS011;38441;52.894;6.040;2022-12-11T06:45:13;55.50;;;17.77;;
52530;SDS011;38441;52.894;6.040;2022-12-11T06:47:39;59.08;;;18.30;;
52530;SDS011;38441;52.894;6.040;2022-12-11T06:50:05;48.05;;;16.85;;
52530;SDS011;38441;52.894;6.040;2022-12-11T06:52:31;51.28;;;18.33;;
52530;SDS011;38441;52.894;6.040;2022-12-11T06:54:57;50.42;;;18.17;;
52530;SDS011;38441;52.894;6.040;2022-12-11T06:57:23;56.58;;;19.42;;
52530;SDS011;38441;52.894;6.040;2022-12-11T06:59:49;51.05;;;17.92;;
52530;SDS011;38441;52.894;6.040;2022-12-11T07:02:15;47.05;;;17.42;;
52530;SDS011;38441;52.894;6.040;2022-12-11T07:04:42;51.95;;;17.80;;
52530;SDS011;38441;52.894;6.040;2022-12-11T07:07:08;51.15;;;16.10;;
52530;SDS011;38441;52.894;6.040;2022-12-11T07:09:36;54.38;;;18.50;;
52530;SDS011;38441;52.894;6.040;2022-12-11T07:12:03;46.92;;;18.05;;
52530;SDS011;38441;52.894;6.040;2022-12-11T07:14:30;51.65;;;17.58;;
52530;SDS011;38441;52.894;6.040;2022-12-11T07:16:56;48.42;;;18.20;;
52530;SDS011;38441;52.894;6.040;2022-12-11T07:19:22;45.97;;;17.33;;
52530;SDS011;38441;52.894;6.040;2022-12-11T07:21:48;47.45;;;16.88;;
52530;SDS011;38441;52.894;6.040;2022-12-11T07:24:14;49.40;;;17.50;;
52530;SDS011;38441;52.894;6.040;2022-12-11T07:26:40;56.20;;;17.60;;
52530;SDS011;38441;52.894;6.040;2022-12-11T07:29:06;54.47;;;17.33;;
52530;SDS011;38441;52.894;6.040;2022-12-11T07:31:32;51.28;;;17.83;;
52530;SDS011;38441;52.894;6.040;2022-12-11T07:34:00;46.38;;;16.50;;
52530;SDS011;38441;52.894;6.040;2022-12-11T07:36:27;48.63;;;17.27;;
52530;SDS011;38441;52.894;6.040;2022-12-11T07:38:54;54.35;;;18.33;;
52530;SDS011;38441;52.894;6.040;2022-12-11T07:41:20;57.33;;;18.35;;
52530;SDS011;38441;52.894;6.040;2022-12-11T07:43:46;55.60;;;19.38;;
52530;SDS011;38441;52.894;6.040;2022-12-11T07:46:13;50.53;;;17.38;;
52530;SDS011;38441;52.894;6.040;2022-12-11T07:48:40;48.95;;;17.98;;
52530;SDS011;38441;52.894;6.040;2022-12-11T07:51:26;55.72;;;19.08;;
52530;SDS011;38441;52.894;6.040;2022-12-11T07:53:53;50.55;;;16.92;;
52530;SDS011;38441;52.894;6.040;2022-12-11T07:56:24;51.38;;;18.13;;
52530;SDS011;38441;52.894;6.040;2022-12-11T07:58:50;47.65;;;18.92;;
52530;SDS011;38441;52.894;6.040;2022-12-11T08:01:17;47.28;;;17.75;;
52530;SDS011;38441;52.894;6.040;2022-12-11T08:03:48;53.78;;;17.27;;
52530;SDS011;38441;52.894;6.040;2022-12-11T08:06:15;47.88;;;16.75;;
52530;SDS011;38441;52.894;6.040;2022-12-11T08:08:41;54.08;;;19.13;;
52530;SDS011;38441;52.894;6.040;2022-12-11T08:11:08;53.08;;;18.05;;
52530;SDS011;38441;52.894;6.040;2022-12-11T08:13:36;53.63;;;18.15;;
52530;SDS011;38441;52.894;6.040;2022-12-11T08:16:03;47.95;;;16.70;;
52530;SDS011;38441;52.894;6.040;2022-12-11T08:18:29;49.53;;;17.90;;
52530;SDS011;38441;52.894;6.040;2022-12-11T08:20:55;56.45;;;18.05;;
52530;SDS011;38441;52.894;6.040;2022-12-11T08:23:21;53.20;;;18.65;;
52530;SDS011;38441;52.894;6.040;2022-12-11T08:25:47;51.17;;;19.15;;
52530;SDS011;38441;52.894;6.040;2022-12-11T08:28:13;51.50;;;17.98;;
52530;SDS011;38441;52.894;6.040;2022-12-11T08:30:39;50.28;;;18.52;;
52530;SDS011;38441;52.894;6.040;2022-12-11T08:33:05;47.33;;;18.15;;
52530;SDS011;38441;52.894;6.040;2022-12-11T08:35:31;54.50;;;18.38;;
52530;SDS011;38441;52.894;6.040;2022-12-11T08:37:57;49.90;;;17.17;;
52530;SDS011;38441;52.894;6.040;2022-12-11T08:40:23;49.78;;;18.40;;
52530;SDS011;38441;52.894;6.040;2022-12-11T08:42:49;50.00;;;18.40;;
52530;SDS011;38441;52.894;6.040;2022-12-11T08:45:16;50.15;;;18.75;;
52530;SDS011;38441;52.894;6.040;2022-12-11T08:47:42;50.30;;;17.70;;
52530;SDS011;38441;52.894;6.040;2022-12-11T08:50:08;52.22;;;17.35;;
52530;SDS011;38441;52.894;6.040;2022-12-11T08:52:34;54.15;;;19.50;;
52530;SDS011;38441;52.894;6.040;2022-12-11T08:55:00;59.13;;;20.98;;
52530;SDS011;38441;52.894;6.040;2022-12-11T08:57:26;50.25;;;19.75;;
52530;SDS011;38441;52.894;6.040;2022-12-11T08:59:52;50.85;;;19.95;;
52530;SDS011;38441;52.894;6.040;2022-12-11T09:02:18;55.05;;;19.70;;
52530;SDS011;38441;52.894;6.040;2022-12-11T09:04:44;47.38;;;19.02;;
52530;SDS011;38441;52.894;6.040;2022-12-11T09:07:10;47.47;;;19.40;;
52530;SDS011;38441;52.894;6.040;2022-12-11T09:09:36;55.35;;;19.98;;
52530;SDS011;38441;52.894;6.040;2022-12-11T09:12:02;48.55;;;18.42;;
52530;SDS011;38441;52.894;6.040;2022-12-11T09:14:28;57.88;;;20.10;;
52530;SDS011;38441;52.894;6.040;2022-12-11T09:16:54;50.00;;;18.75;;
52530;SDS011;38441;52.894;6.040;2022-12-11T09:19:20;60.58;;;20.55;;
52530;SDS011;38441;52.894;6.040;2022-12-11T09:21:46;48.88;;;18.00;;
52530;SDS011;38441;52.894;6.040;2022-12-11T09:24:13;52.30;;;18.60;;
52530;SDS011;38441;52.894;6.040;2022-12-11T09:26:39;50.70;;;17.88;;
52530;SDS011;38441;52.894;6.040;2022-12-11T09:29:18;48.65;;;18.00;;
52530;SDS011;38441;52.894;6.040;2022-12-11T09:31:44;48.63;;;18.27;;
52530;SDS011;38441;52.894;6.040;2022-12-11T09:34:11;48.67;;;17.42;;
52530;SDS011;38441;52.894;6.040;2022-12-11T09:36:37;50.60;;;17.33;;
52530;SDS011;38441;52.894;6.040;2022-12-11T09:39:04;52.58;;;18.65;;
52530;SDS011;38441;52.894;6.040;2022-12-11T09:47:16;45.83;;;17.25;;
52530;SDS011;38441;52.894;6.040;2022-12-11T09:49:52;46.20;;;16.58;;
52530;SDS011;38441;52.894;6.040;2022-12-11T09:52:51;46.13;;;18.15;;
52530;SDS011;38441;52.894;6.040;2022-12-11T09:55:23;48.28;;;18.52;;
52530;SDS011;38441;52.894;6.040;2022-12-11T09:57:59;49.65;;;17.92;;
52530;SDS011;38441;52.894;6.040;2022-12-11T10:00:38;51.95;;;19.02;;
52530;SDS011;38441;52.894;6.040;2022-12-11T10:03:21;46.53;;;17.35;;
52530;SDS011;38441;52.894;6.040;2022-12-11T10:08:38;48.20;;;17.40;;
52530;SDS011;38441;52.894;6.040;2022-12-11T10:13:55;51.05;;;21.65;;
52530;SDS011;38441;52.894;6.040;2022-12-11T10:19:10;46.10;;;17.77;;
52530;SDS011;38441;52.894;6.040;2022-12-11T10:21:41;45.72;;;18.40;;
52530;SDS011;38441;52.894;6.040;2022-12-11T10:24:13;45.38;;;17.40;;
52530;SDS011;38441;52.894;6.040;2022-12-11T10:26:54;45.08;;;17.83;;
52530;SDS011;38441;52.894;6.040;2022-12-11T10:29:23;54.22;;;21.02;;
52530;SDS011;38441;52.894;6.040;2022-12-11T10:34:37;44.00;;;18.17;;
52530;SDS011;38441;52.894;6.040;2022-12-11T10:37:03;41.95;;;17.13;;
52530;SDS011;38441;52.894;6.040;2022-12-11T10:39:30;45.38;;;17.75;;
52530;SDS011;38441;52.894;6.040;2022-12-11T10:41:55;49.55;;;17.92;;
52530;SDS011;38441;52.894;6.040;2022-12-11T10:44:22;47.92;;;19.27;;
52530;SDS011;38441;52.894;6.040;2022-12-11T10:49:34;47.60;;;16.25;;
52530;SDS011;38441;52.894;6.040;2022-12-11T10:52:01;43.33;;;17.17;;
52530;SDS011;38441;52.894;6.040;2022-12-11T10:54:43;46.03;;;17.67;;
52530;SDS011;38441;52.894;6.040;2022-12-11T10:57:12;40.92;;;17.15;;
52530;SDS011;38441;52.894;6.040;2022-12-11T10:59:40;40.55;;;16.60;;
52530;SDS011;38441;52.894;6.040;2022-12-11T11:02:18;44.85;;;17.83;;
52530;SDS011;38441;52.894;6.040;2022-12-11T11:04:48;42.22;;;16.80;;
52530;SDS011;38441;52.894;6.040;2022-12-11T11:07:18;41.33;;;17.98;;
52530;SDS011;38441;52.894;6.040;2022-12-11T11:10:05;41.38;;;17.70;;
52530;SDS011;38441;52.894;6.040;2022-12-11T11:12:35;41.08;;;17.80;;
52530;SDS011;38441;52.894;6.040;2022-12-11T11:20:14;45.72;;;17.65;;
52530;SDS011;38441;52.894;6.040;2022-12-11T11:22:44;43.13;;;18.95;;
52530;SDS011;38441;52.894;6.040;2022-12-11T11:25:17;38.43;;;16.67;;
52530;SDS011;38441;52.894;6.040;2022-12-11T11:27:52;44.00;;;16.80;;
52530;SDS011;38441;52.894;6.040;2022-12-11T11:30:25;43.83;;;17.42;;
52530;SDS011;38441;52.894;6.040;2022-12-11T11:32:55;41.83;;;17.77;;
52530;SDS011;38441;52.894;6.040;2022-12-11T11:35:23;40.10;;;16.63;;
52530;SDS011;38441;52.894;6.040;2022-12-11T11:38:02;41.78;;;17.92;;
52530;SDS011;38441;52.894;6.040;2022-12-11T11:40:30;43.35;;;17.33;;
52530;SDS011;38441;52.894;6.040;2022-12-11T11:43:04;42.97;;;18.05;;
52530;SDS011;38441;52.894;6.040;2022-12-11T11:46:07;39.00;;;17.48;;
52530;SDS011;38441;52.894;6.040;2022-12-11T11:51:37;38.60;;;17.17;;
52530;SDS011;38441;52.894;6.040;2022-12-11T11:54:27;43.83;;;17.08;;
52530;SDS011;38441;52.894;6.040;2022-12-11T11:56:57;37.28;;;17.33;;
52530;SDS011;38441;52.894;6.040;2022-12-11T11:59:25;40.67;;;18.02;;
52530;SDS011;38441;52.894;6.040;2022-12-11T12:01:56;35.70;;;17.25;;
52530;SDS011;38441;52.894;6.040;2022-12-11T12:04:22;36.72;;;17.65;;
52530;SDS011;38441;52.894;6.040;2022-12-11T12:09:31;35.22;;;17.73;;
52530;SDS011;38441;52.894;6.040;2022-12-11T12:12:13;40.63;;;18.25;;
52530;SDS011;38441;52.894;6.040;2022-12-11T12:15:28;34.75;;;16.40;;
52530;SDS011;38441;52.894;6.040;2022-12-11T12:17:55;35.88;;;17.60;;
52530;SDS011;38441;52.894;6.040;2022-12-11T12:20:34;38.00;;;17.67;;
52530;SDS011;38441;52.894;6.040;2022-12-11T12:23:27;34.13;;;16.83;;
52530;SDS011;38441;52.894;6.040;2022-12-11T12:31:30;34.97;;;17.67;;
52530;SDS011;38441;52.894;6.040;2022-12-11T12:42:43;32.90;;;16.98;;
52530;SDS011;38441;52.894;6.040;2022-12-11T12:45:41;32.80;;;15.82;;
52530;SDS011;38441;52.894;6.040;2022-12-11T12:48:17;30.13;;;16.52;;
52530;SDS011;38441;52.894;6.040;2022-12-11T12:50:45;31.65;;;16.33;;
52530;SDS011;38441;52.894;6.040;2022-12-11T12:53:13;30.60;;;15.70;;
52530;SDS011;38441;52.894;6.040;2022-12-11T12:55:43;33.00;;;16.20;;
52530;SDS011;38441;52.894;6.040;2022-12-11T12:58:30;29.90;;;16.77;;
52530;SDS011;38441;52.894;6.040;2022-12-11T13:03:56;30.75;;;16.15;;
52530;SDS011;38441;52.894;6.040;2022-12-11T13:06:35;32.97;;;16.33;;
52530;SDS011;38441;52.894;6.040;2022-12-11T13:09:09;30.27;;;16.88;;
52530;SDS011;38441;52.894;6.040;2022-12-11T13:11:40;29.98;;;16.40;;
52530;SDS011;38441;52.894;6.040;2022-12-11T13:14:07;33.30;;;17.55;;
52530;SDS011;38441;52.894;6.040;2022-12-11T13:16:51;35.13;;;19.70;;
52530;SDS011;38441;52.894;6.040;2022-12-11T13:19:28;37.95;;;19.77;;
52530;SDS011;38441;52.894;6.040;2022-12-11T13:21:56;35.55;;;19.27;;
52530;SDS011;38441;52.894;6.040;2022-12-11T13:24:27;33.75;;;18.63;;
52530;SDS011;38441;52.894;6.040;2022-12-11T13:26:55;35.55;;;17.33;;
52530;SDS011;38441;52.894;6.040;2022-12-11T13:29:31;36.65;;;18.02;;
52530;SDS011;38441;52.894;6.040;2022-12-11T13:31:59;32.03;;;17.17;;
52530;SDS011;38441;52.894;6.040;2022-12-11T13:34:26;35.20;;;17.60;;
52530;SDS011;38441;52.894;6.040;2022-12-11T13:36:55;34.25;;;17.70;;
52530;SDS011;38441;52.894;6.040;2022-12-11T13:39:25;35.22;;;17.77;;
52530;SDS011;38441;52.894;6.040;2022-12-11T13:41:59;32.67;;;17.85;;
52530;SDS011;38441;52.894;6.040;2022-12-11T13:44:27;34.63;;;17.55;;
52530;SDS011;38441;52.894;6.040;2022-12-11T13:46:55;34.97;;;18.02;;
52530;SDS011;38441;52.894;6.040;2022-12-11T13:49:24;33.30;;;16.65;;
52530;SDS011;38441;52.894;6.040;2022-12-11T13:51:52;36.35;;;17.17;;
52530;SDS011;38441;52.894;6.040;2022-12-11T13:54:20;36.78;;;18.23;;
52530;SDS011;38441;52.894;6.040;2022-12-11T13:59:34;35.00;;;18.23;;
52530;SDS011;38441;52.894;6.040;2022-12-11T14:02:03;30.58;;;16.70;;
52530;SDS011;38441;52.894;6.040;2022-12-11T14:04:42;32.53;;;15.90;;
52530;SDS011;38441;52.894;6.040;2022-12-11T14:07:08;33.38;;;16.80;;
52530;SDS011;38441;52.894;6.040;2022-12-11T14:09:36;31.70;;;16.80;;
52530;SDS011;38441;52.894;6.040;2022-12-11T14:12:03;33.38;;;16.75;;
52530;SDS011;38441;52.894;6.040;2022-12-11T14:14:41;34.40;;;16.67;;
52530;SDS011;38441;52.894;6.040;2022-12-11T14:17:12;33.42;;;17.00;;
52530;SDS011;38441;52.894;6.040;2022-12-11T14:19:40;34.60;;;17.95;;
52530;SDS011;38441;52.894;6.040;2022-12-11T14:24:37;35.97;;;15.80;;
52530;SDS011;38441;52.894;6.040;2022-12-11T14:27:20;31.95;;;16.40;;
52530;SDS011;38441;52.894;6.040;2022-12-11T14:29:46;33.55;;;16.42;;
52530;SDS011;38441;52.894;6.040;2022-12-11T14:32:16;31.75;;;16.20;;
52530;SDS011;38441;52.894;6.040;2022-12-11T14:34:48;30.67;;;16.52;;
52530;SDS011;38441;52.894;6.040;2022-12-11T14:37:15;31.55;;;16.70;;
52530;SDS011;38441;52.894;6.040;2022-12-11T14:42:11;29.65;;;16.42;;
52530;SDS011;38441;52.894;6.040;2022-12-11T14:44:49;29.90;;;16.02;;
52530;SDS011;38441;52.894;6.040;2022-12-11T14:47:28;31.27;;;16.45;;
52530;SDS011;38441;52.894;6.040;2022-12-11T14:52:39;32.33;;;16.55;;
52530;SDS011;38441;52.894;6.040;2022-12-11T14:55:09;30.80;;;15.55;;
52530;SDS011;38441;52.894;6.040;2022-12-11T14:57:47;31.25;;;16.45;;
52530;SDS011;38441;52.894;6.040;2022-12-11T15:02:55;30.00;;;15.32;;
52530;SDS011;38441;52.894;6.040;2022-12-11T15:05:30;31.80;;;16.13;;
52530;SDS011;38441;52.894;6.040;2022-12-11T15:08:01;28.85;;;15.23;;
52530;SDS011;38441;52.894;6.040;2022-12-11T15:10:39;33.22;;;16.63;;
52530;SDS011;38441;52.894;6.040;2022-12-11T15:13:07;29.38;;;15.90;;
52530;SDS011;38441;52.894;6.040;2022-12-11T15:15:52;29.17;;;15.48;;
52530;SDS011;38441;52.894;6.040;2022-12-11T15:18:26;30.70;;;15.43;;
52530;SDS011;38441;52.894;6.040;2022-12-11T15:20:54;28.67;;;15.25;;
52530;SDS011;38441;52.894;6.040;2022-12-11T15:23:22;28.73;;;15.50;;
52530;SDS011;38441;52.894;6.040;2022-12-11T15:25:52;30.20;;;14.40;;
52530;SDS011;38441;52.894;6.040;2022-12-11T15:28:27;25.27;;;13.88;;
52530;SDS011;38441;52.894;6.040;2022-12-11T15:31:02;24.35;;;13.18;;
52530;SDS011;38441;52.894;6.040;2022-12-11T15:33:30;24.45;;;13.48;;
52530;SDS011;38441;52.894;6.040;2022-12-11T15:36:01;28.73;;;13.98;;
52530;SDS011;38441;52.894;6.040;2022-12-11T15:38:35;27.00;;;13.88;;
52530;SDS011;38441;52.894;6.040;2022-12-11T15:41:03;28.65;;;14.25;;
52530;SDS011;38441;52.894;6.040;2022-12-11T15:43:31;28.77;;;14.98;;
52530;SDS011;38441;52.894;6.040;2022-12-11T15:46:00;29.80;;;13.93;;
52530;SDS011;38441;52.894;6.040;2022-12-11T15:48:26;26.98;;;14.63;;
52530;SDS011;38441;52.894;6.040;2022-12-11T15:50:52;29.20;;;15.00;;
52530;SDS011;38441;52.894;6.040;2022-12-11T15:53:18;27.40;;;14.57;;